Terminal Aerodrome Forecast
Issued by NWS

Home | Current Version | Previous Version | Text Only | Print | Product List | Glossary On
Versions: 1 2 3 4 5 6 7 8 9 10 11 12 13 14 15 16 17 18 19 20 21 22 23 24
000
FTUS46 KPDT 240536
TAFDLS
TAF
KDLS 240536Z 2406/2506 10007KT 5SM BR OVC012
     FM240900 VRB06KT 1SM BR OVC006
     FM241800 30007KT 5SM BR SCT008 BKN018
     FM242100 30007KT 6SM BR BKN025
     FM250400 VRB06KT 5SM BR BKN020=

USA.gov is the U.S. government's official web portal to all federal, state and local government web resources and services.